sensor_id;sensor_type;location;lat;lon;timestamp;pressure;altitude;pressure_sealevel;temperature;humidity
8523;BME280;4299;42.202;24.736;2023-02-04T00:01:01;99585.72;;;4.41;nan
8523;BME280;4299;42.202;24.736;2023-02-04T00:03:28;99590.91;;;4.44;nan
8523;BME280;4299;42.202;24.736;2023-02-04T00:05:54;99585.47;;;4.50;nan
8523;BME280;4299;42.202;24.736;2023-02-04T00:08:21;99576.50;;;4.57;nan
8523;BME280;4299;42.202;24.736;2023-02-04T00:10:48;99569.13;;;4.68;nan
8523;BME280;4299;42.202;24.736;2023-02-04T00:13:16;99572.03;;;4.88;nan
8523;BME280;4299;42.202;24.736;2023-02-04T00:15:42;99576.66;;;5.06;nan
8523;BME280;4299;42.202;24.736;2023-02-04T00:18:09;99565.66;;;5.22;nan
8523;BME280;4299;42.202;24.736;2023-02-04T00:20:36;99573.94;;;5.36;nan
8523;BME280;4299;42.202;24.736;2023-02-04T00:23:03;99572.78;;;5.44;nan
8523;BME280;4299;42.202;24.736;2023-02-04T00:25:29;99571.34;;;5.34;nan
8523;BME280;4299;42.202;24.736;2023-02-04T00:27:56;99565.44;;;5.28;nan
8523;BME280;4299;42.202;24.736;2023-02-04T00:30:24;99565.66;;;5.22;nan
8523;BME280;4299;42.202;24.736;2023-02-04T00:32:51;99569.22;;;5.19;nan
8523;BME280;4299;42.202;24.736;2023-02-04T00:35:19;99567.59;;;5.17;nan
8523;BME280;4299;42.202;24.736;2023-02-04T00:37:46;99558.97;;;5.12;nan
8523;BME280;4299;42.202;24.736;2023-02-04T00:40:12;99557.16;;;5.14;nan
8523;BME280;4299;42.202;24.736;2023-02-04T00:42:39;99557.16;;;5.14;nan
8523;BME280;4299;42.202;24.736;2023-02-04T00:45:06;99552.31;;;5.01;nan
8523;BME280;4299;42.202;24.736;2023-02-04T00:47:35;99547.53;;;5.14;nan
8523;BME280;4299;42.202;24.736;2023-02-04T00:50:01;99554.66;;;5.11;nan
8523;BME280;4299;42.202;24.736;2023-02-04T00:52:28;99544.84;;;5.16;nan
8523;BME280;4299;42.202;24.736;2023-02-04T00:54:55;99548.47;;;5.12;nan
8523;BME280;4299;42.202;24.736;2023-02-04T00:57:21;99546.56;;;5.17;nan
8523;BME280;4299;42.202;24.736;2023-02-04T00:59:48;99542.91;;;5.21;nan
8523;BME280;4299;42.202;24.736;2023-02-04T01:02:15;99546.16;;;5.29;nan
8523;BME280;4299;42.202;24.736;2023-02-04T01:04:43;99530.28;;;5.32;nan
8523;BME280;4299;42.202;24.736;2023-02-04T01:07:09;99530.38;;;5.29;nan
8523;BME280;4299;42.202;24.736;2023-02-04T01:09:36;99528.56;;;5.31;nan
8523;BME280;4299;42.202;24.736;2023-02-04T01:12:03;99514.38;;;5.35;nan
8523;BME280;4299;42.202;24.736;2023-02-04T01:14:30;99497.13;;;5.28;nan
8523;BME280;4299;42.202;24.736;2023-02-04T01:16:56;99495.22;;;5.33;nan
8523;BME280;4299;42.202;24.736;2023-02-04T01:19:23;99488.81;;;5.40;nan
8523;BME280;4299;42.202;24.736;2023-02-04T01:21:51;99477.50;;;5.38;nan
8523;BME280;4299;42.202;24.736;2023-02-04T01:24:18;99474.69;;;5.42;nan
8523;BME280;4299;42.202;24.736;2023-02-04T01:26:44;99472.03;;;5.44;nan
8523;BME280;4299;42.202;24.736;2023-02-04T01:29:11;99465.03;;;5.43;nan
8523;BME280;4299;42.202;24.736;2023-02-04T01:31:38;99452.72;;;5.45;nan
8523;BME280;4299;42.202;24.736;2023-02-04T01:34:04;99443.00;;;5.47;nan
8523;BME280;4299;42.202;24.736;2023-02-04T01:36:31;99431.63;;;5.46;nan
8523;BME280;4299;42.202;24.736;2023-02-04T01:38:59;99421.91;;;5.48;nan
8523;BME280;4299;42.202;24.736;2023-02-04T01:41:27;99430.44;;;5.55;nan
8523;BME280;4299;42.202;24.736;2023-02-04T01:43:54;99425.38;;;5.49;nan
8523;BME280;4299;42.202;24.736;2023-02-04T01:46:21;99420.31;;;5.44;nan
8523;BME280;4299;42.202;24.736;2023-02-04T01:48:48;99421.25;;;5.42;nan
8523;BME280;4299;42.202;24.736;2023-02-04T01:51:25;99412.66;;;5.38;nan
8523;BME280;4299;42.202;24.736;2023-02-04T01:53:54;99413.16;;;5.25;nan
8523;BME280;4299;42.202;24.736;2023-02-04T01:56:23;99408.00;;;5.22;nan
8523;BME280;4299;42.202;24.736;2023-02-04T01:58:51;99406.72;;;5.08;nan
8523;BME280;4299;42.202;24.736;2023-02-04T02:01:34;99399.00;;;5.04;nan
8523;BME280;4299;42.202;24.736;2023-02-04T02:04:01;99405.53;;;4.92;nan
8523;BME280;4299;42.202;24.736;2023-02-04T02:06:28;99398.69;;;4.88;nan
8523;BME280;4299;42.202;24.736;2023-02-04T02:08:55;99389.34;;;4.80;nan
8523;BME280;4299;42.202;24.736;2023-02-04T02:11:25;99386.75;;;4.78;nan
8523;BME280;4299;42.202;24.736;2023-02-04T02:13:52;99392.09;;;4.75;nan
8523;BME280;4299;42.202;24.736;2023-02-04T02:16:19;99383.31;;;4.76;nan
8523;BME280;4299;42.202;24.736;2023-02-04T02:18:46;99390.19;;;4.80;nan
8523;BME280;4299;42.202;24.736;2023-02-04T02:21:13;99377.84;;;4.82;nan
8523;BME280;4299;42.202;24.736;2023-02-04T02:23:45;99369.84;;;4.87;nan
8523;BME280;4299;42.202;24.736;2023-02-04T02:26:14;99368.06;;;4.87;nan
8523;BME280;4299;42.202;24.736;2023-02-04T02:28:42;99375.81;;;4.90;nan
8523;BME280;4299;42.202;24.736;2023-02-04T02:31:09;99370.47;;;4.93;nan
8523;BME280;4299;42.202;24.736;2023-02-04T02:33:36;99375.50;;;4.99;nan
8523;BME280;4299;42.202;24.736;2023-02-04T02:36:03;99368.66;;;4.95;nan
8523;BME280;4299;42.202;24.736;2023-02-04T02:38:31;99363.28;;;4.98;nan
8523;BME280;4299;42.202;24.736;2023-02-04T02:40:59;99361.47;;;5.00;nan
8523;BME280;4299;42.202;24.736;2023-02-04T02:43:27;99359.66;;;5.02;nan
8523;BME280;4299;42.202;24.736;2023-02-04T02:45:55;99361.38;;;5.03;nan
8523;BME280;4299;42.202;24.736;2023-02-04T02:48:24;99354.41;;;5.02;nan
8523;BME280;4299;42.202;24.736;2023-02-04T02:50:50;99351.19;;;4.94;nan
8523;BME280;4299;42.202;24.736;2023-02-04T02:53:18;99340.56;;;4.97;nan
8523;BME280;4299;42.202;24.736;2023-02-04T02:55:46;99338.75;;;4.99;nan
8523;BME280;4299;42.202;24.736;2023-02-04T02:58:22;99340.34;;;5.03;nan
8523;BME280;4299;42.202;24.736;2023-02-04T03:00:50;99329.94;;;5.00;nan
8523;BME280;4299;42.202;24.736;2023-02-04T03:03:19;99315.91;;;5.01;nan
8523;BME280;4299;42.202;24.736;2023-02-04T03:05:51;99331.75;;;4.98;nan
8523;BME280;4299;42.202;24.736;2023-02-04T03:08:19;99323.19;;;4.93;nan
8523;BME280;4299;42.202;24.736;2023-02-04T03:10:47;99314.09;;;4.79;nan
8523;BME280;4299;42.202;24.736;2023-02-04T03:13:15;99309.72;;;4.79;nan
8523;BME280;4299;42.202;24.736;2023-02-04T03:15:44;99305.09;;;4.86;nan
8523;BME280;4299;42.202;24.736;2023-02-04T03:18:12;99302.41;;;4.87;nan
8523;BME280;4299;42.202;24.736;2023-02-04T03:20:40;99305.78;;;4.91;nan
8523;BME280;4299;42.202;24.736;2023-02-04T03:23:07;99300.94;;;4.80;nan
8523;BME280;4299;42.202;24.736;2023-02-04T03:25:34;99303.06;;;4.69;nan
8523;BME280;4299;42.202;24.736;2023-02-04T03:28:01;99295.94;;;4.73;nan
8523;BME280;4299;42.202;24.736;2023-02-04T03:30:29;99292.34;;;4.75;nan
8523;BME280;4299;42.202;24.736;2023-02-04T03:32:56;99297.59;;;4.75;nan
8523;BME280;4299;42.202;24.736;2023-02-04T03:35:23;99292.22;;;4.78;nan
8523;BME280;4299;42.202;24.736;2023-02-04T03:37:49;99290.66;;;4.74;nan
8523;BME280;4299;42.202;24.736;2023-02-04T03:40:16;99288.47;;;4.85;nan
8523;BME280;4299;42.202;24.736;2023-02-04T03:42:43;99279.22;;;4.98;nan
8523;BME280;4299;42.202;24.736;2023-02-04T03:45:09;99281.34;;;5.12;nan
8523;BME280;4299;42.202;24.736;2023-02-04T03:47:37;99280.16;;;5.21;nan
8523;BME280;4299;42.202;24.736;2023-02-04T03:50:04;99270.69;;;5.17;nan
8523;BME280;4299;42.202;24.736;2023-02-04T03:52:31;99272.44;;;5.16;nan
8523;BME280;4299;42.202;24.736;2023-02-04T03:54:58;99252.44;;;5.12;nan
8523;BME280;4299;42.202;24.736;2023-02-04T03:57:24;99256.31;;;5.03;nan
8523;BME280;4299;42.202;24.736;2023-02-04T03:59:51;99246.91;;;4.73;nan
8523;BME280;4299;42.202;24.736;2023-02-04T04:02:18;99247.56;;;4.55;nan
8523;BME280;4299;42.202;24.736;2023-02-04T04:04:46;99239.91;;;4.49;nan
8523;BME280;4299;42.202;24.736;2023-02-04T04:07:12;99235.88;;;4.39;nan
8523;BME280;4299;42.202;24.736;2023-02-04T04:09:39;99226.31;;;4.38;nan
8523;BME280;4299;42.202;24.736;2023-02-04T04:12:06;99227.09;;;4.40;nan
8523;BME280;4299;42.202;24.736;2023-02-04T04:14:32;99225.50;;;4.36;nan
8523;BME280;4299;42.202;24.736;2023-02-04T04:16:59;99229.22;;;4.30;nan
8523;BME280;4299;42.202;24.736;2023-02-04T04:19:26;99225.13;;;4.21;nan
8523;BME280;4299;42.202;24.736;2023-02-04T04:21:54;99222.59;;;4.18;nan
8523;BME280;4299;42.202;24.736;2023-02-04T04:24:20;99227.75;;;4.21;nan
8523;BME280;4299;42.202;24.736;2023-02-04T04:26:47;99225.88;;;4.25;nan
8523;BME280;4299;42.202;24.736;2023-02-04T04:29:14;99220.72;;;4.23;nan
8523;BME280;4299;42.202;24.736;2023-02-04T04:31:40;99224.44;;;4.16;nan
8523;BME280;4299;42.202;24.736;2023-02-04T04:34:09;99244.03;;;4.06;nan
8523;BME280;4299;42.202;24.736;2023-02-04T04:36:35;99231.34;;;3.94;nan
8523;BME280;4299;42.202;24.736;2023-02-04T04:39:03;99215.66;;;3.92;nan
8523;BME280;4299;42.202;24.736;2023-02-04T04:41:30;99203.28;;;3.96;nan
8523;BME280;4299;42.202;24.736;2023-02-04T04:43:57;99197.97;;;3.98;nan
8523;BME280;4299;42.202;24.736;2023-02-04T04:46:23;99204.00;;;4.01;nan
8523;BME280;4299;42.202;24.736;2023-02-04T04:48:50;99202.38;;;3.97;nan
8523;BME280;4299;42.202;24.736;2023-02-04T04:51:17;99194.38;;;4.02;nan
8523;BME280;4299;42.202;24.736;2023-02-04T04:53:43;99194.06;;;4.09;nan
8523;BME280;4299;42.202;24.736;2023-02-04T04:56:11;99181.72;;;4.13;nan
8523;BME280;4299;42.202;24.736;2023-02-04T04:58:38;99198.00;;;4.22;nan
8523;BME280;4299;42.202;24.736;2023-02-04T05:01:05;99187.50;;;4.22;nan
8523;BME280;4299;42.202;24.736;2023-02-04T05:03:31;99186.75;;;4.19;nan
8523;BME280;4299;42.202;24.736;2023-02-04T05:05:58;99192.97;;;4.16;nan
8523;BME280;4299;42.202;24.736;2023-02-04T05:08:25;99193.88;;;4.15;nan
8523;BME280;4299;42.202;24.736;2023-02-04T05:10:51;99191.25;;;4.15;nan
8523;BME280;4299;42.202;24.736;2023-02-04T05:13:19;99182.53;;;4.15;nan
8523;BME280;4299;42.202;24.736;2023-02-04T05:15:48;99184.50;;;4.08;nan
8523;BME280;4299;42.202;24.736;2023-02-04T05:18:15;99181.06;;;4.06;nan
8523;BME280;4299;42.202;24.736;2023-02-04T05:20:41;99184.38;;;4.11;nan
8523;BME280;4299;42.202;24.736;2023-02-04T05:23:08;99172.81;;;4.17;nan
8523;BME280;4299;42.202;24.736;2023-02-04T05:25:35;99170.06;;;4.21;nan
8523;BME280;4299;42.202;24.736;2023-02-04T05:28:01;99173.50;;;4.23;nan
8523;BME280;4299;42.202;24.736;2023-02-04T05:30:29;99180.22;;;4.30;nan
8523;BME280;4299;42.202;24.736;2023-02-04T05:32:56;99177.66;;;4.29;nan
8523;BME280;4299;42.202;24.736;2023-02-04T05:35:23;99175.94;;;4.28;nan
8523;BME280;4299;42.202;24.736;2023-02-04T05:37:49;99168.88;;;4.30;nan
8523;BME280;4299;42.202;24.736;2023-02-04T05:40:16;99171.31;;;4.35;nan
8523;BME280;4299;42.202;24.736;2023-02-04T05:42:43;99182.78;;;4.32;nan
8523;BME280;4299;42.202;24.736;2023-02-04T05:45:13;99196.91;;;4.28;nan
8523;BME280;4299;42.202;24.736;2023-02-04T05:47:41;99185.66;;;4.24;nan
8523;BME280;4299;42.202;24.736;2023-02-04T05:50:09;99192.84;;;4.19;nan
8523;BME280;4299;42.202;24.736;2023-02-04T05:52:36;99182.56;;;4.13;nan
8523;BME280;4299;42.202;24.736;2023-02-04T05:55:03;99181.75;;;4.11;nan
8523;BME280;4299;42.202;24.736;2023-02-04T05:57:30;99198.22;;;4.16;nan
8523;BME280;4299;42.202;24.736;2023-02-04T05:59:57;99191.34;;;4.12;nan
8523;BME280;4299;42.202;24.736;2023-02-04T06:02:23;99179.13;;;4.11;nan
8523;BME280;4299;42.202;24.736;2023-02-04T06:04:51;99188.63;;;4.15;nan
8523;BME280;4299;42.202;24.736;2023-02-04T06:07:18;99189.53;;;4.14;nan
8523;BME280;4299;42.202;24.736;2023-02-04T06:09:45;99186.66;;;4.22;nan
8523;BME280;4299;42.202;24.736;2023-02-04T06:12:11;99180.22;;;4.30;nan
8523;BME280;4299;42.202;24.736;2023-02-04T06:14:38;99169.16;;;4.46;nan
8523;BME280;4299;42.202;24.736;2023-02-04T06:17:05;99168.59;;;4.61;nan
8523;BME280;4299;42.202;24.736;2023-02-04T06:19:31;99171.69;;;4.72;nan
8523;BME280;4299;42.202;24.736;2023-02-04T06:21:59;99185.50;;;4.77;nan
8523;BME280;4299;42.202;24.736;2023-02-04T06:24:26;99182.56;;;4.85;nan
8523;BME280;4299;42.202;24.736;2023-02-04T06:26:52;99179.78;;;4.89;nan
8523;BME280;4299;42.202;24.736;2023-02-04T06:29:19;99189.94;;;4.98;nan
8523;BME280;4299;42.202;24.736;2023-02-04T06:31:46;99182.50;;;5.09;nan
8523;BME280;4299;42.202;24.736;2023-02-04T06:34:13;99170.91;;;5.15;nan
8523;BME280;4299;42.202;24.736;2023-02-04T06:36:40;99181.97;;;5.23;nan
8523;BME280;4299;42.202;24.736;2023-02-04T06:39:08;99180.19;;;5.24;nan
8523;BME280;4299;42.202;24.736;2023-02-04T06:41:35;99181.66;;;5.31;nan
8523;BME280;4299;42.202;24.736;2023-02-04T06:44:01;99176.25;;;5.34;nan
8523;BME280;4299;42.202;24.736;2023-02-04T06:46:28;99194.00;;;5.51;nan
8523;BME280;4299;42.202;24.736;2023-02-04T06:48:55;99184.09;;;5.57;nan
8523;BME280;4299;42.202;24.736;2023-02-04T06:51:21;99180.28;;;5.64;nan
8523;BME280;4299;42.202;24.736;2023-02-04T06:53:48;99188.88;;;5.69;nan
8523;BME280;4299;42.202;24.736;2023-02-04T06:56:16;99198.88;;;5.81;nan
8523;BME280;4299;42.202;24.736;2023-02-04T06:58:43;99208.25;;;5.89;nan
8523;BME280;4299;42.202;24.736;2023-02-04T07:01:09;99198.38;;;5.94;nan
8523;BME280;4299;42.202;24.736;2023-02-04T07:03:36;99208.75;;;6.18;nan
8523;BME280;4299;42.202;24.736;2023-02-04T07:06:03;99208.94;;;6.34;nan
8523;BME280;4299;42.202;24.736;2023-02-04T07:08:29;99218.91;;;6.46;nan
8523;BME280;4299;42.202;24.736;2023-02-04T07:10:56;99216.81;;;6.54;nan
8523;BME280;4299;42.202;24.736;2023-02-04T07:13:24;99219.03;;;6.63;nan
8523;BME280;4299;42.202;24.736;2023-02-04T07:15:51;99211.72;;;6.70;nan
8523;BME280;4299;42.202;24.736;2023-02-04T07:18:18;99215.72;;;6.79;nan
8523;BME280;4299;42.202;24.736;2023-02-04T07:20:45;99224.28;;;6.84;nan
8523;BME280;4299;42.202;24.736;2023-02-04T07:23:11;99227.53;;;6.89;nan
8523;BME280;4299;42.202;24.736;2023-02-04T07:25:38;99222.66;;;7.00;nan
8523;BME280;4299;42.202;24.736;2023-02-04T07:28:05;99220.66;;;7.05;nan
8523;BME280;4299;42.202;24.736;2023-02-04T07:30:33;99217.72;;;7.11;nan
8523;BME280;4299;42.202;24.736;2023-02-04T07:32:59;99212.16;;;7.17;nan
8523;BME280;4299;42.202;24.736;2023-02-04T07:35:26;99218.72;;;7.27;nan
8523;BME280;4299;42.202;24.736;2023-02-04T07:37:53;99214.09;;;7.32;nan
8523;BME280;4299;42.202;24.736;2023-02-04T07:40:19;99206.34;;;7.29;nan
8523;BME280;4299;42.202;24.736;2023-02-04T07:42:46;99213.88;;;7.18;nan
8523;BME280;4299;42.202;24.736;2023-02-04T07:45:14;99205.41;;;7.12;nan
8523;BME280;4299;42.202;24.736;2023-02-04T07:47:42;99195.38;;;7.01;nan
8523;BME280;4299;42.202;24.736;2023-02-04T07:50:09;99191.66;;;7.05;nan
8523;BME280;4299;42.202;24.736;2023-02-04T07:52:35;99185.97;;;7.14;nan
8523;BME280;4299;42.202;24.736;2023-02-04T07:55:03;99183.25;;;7.34;nan
8523;BME280;4299;42.202;24.736;2023-02-04T07:57:29;99193.53;;;7.58;nan
8523;BME280;4299;42.202;24.736;2023-02-04T07:59:56;99189.22;;;7.74;nan
8523;BME280;4299;42.202;24.736;2023-02-04T08:02:23;99177.28;;;7.84;nan
8523;BME280;4299;42.202;24.736;2023-02-04T08:04:51;99172.44;;;7.75;nan
8523;BME280;4299;42.202;24.736;2023-02-04T08:07:18;99168.56;;;7.82;nan
8523;BME280;4299;42.202;24.736;2023-02-04T08:09:44;99167.56;;;7.85;nan
8523;BME280;4299;42.202;24.736;2023-02-04T08:12:11;99158.34;;;7.93;nan
8523;BME280;4299;42.202;24.736;2023-02-04T08:14:38;99157.66;;;8.07;nan
8523;BME280;4299;42.202;24.736;2023-02-04T08:17:04;99151.72;;;8.19;nan
8523;BME280;4299;42.202;24.736;2023-02-04T08:19:31;99144.06;;;8.32;nan
8523;BME280;4299;42.202;24.736;2023-02-04T08:21:59;99146.97;;;8.60;nan
8523;BME280;4299;42.202;24.736;2023-02-04T08:24:25;99142.00;;;8.70;nan
8523;BME280;4299;42.202;24.736;2023-02-04T08:26:52;99143.94;;;8.83;nan
8523;BME280;4299;42.202;24.736;2023-02-04T08:29:19;99145.63;;;8.84;nan
8523;BME280;4299;42.202;24.736;2023-02-04T08:31:45;99136.41;;;8.91;nan
8523;BME280;4299;42.202;24.736;2023-02-04T08:34:12;99120.47;;;8.93;nan
8523;BME280;4299;42.202;24.736;2023-02-04T08:36:39;99122.63;;;9.18;nan
8523;BME280;4299;42.202;24.736;2023-02-04T08:39:07;99116.09;;;9.39;nan
8523;BME280;4299;42.202;24.736;2023-02-04T08:41:36;99118.41;;;9.45;nan
8523;BME280;4299;42.202;24.736;2023-02-04T08:44:03;99126.16;;;9.48;nan
8523;BME280;4299;42.202;24.736;2023-02-04T08:46:30;99124.47;;;9.47;nan
8523;BME280;4299;42.202;24.736;2023-02-04T08:48:57;99122.91;;;9.43;nan
8523;BME280;4299;42.202;24.736;2023-02-04T08:51:23;99131.75;;;9.58;nan
8523;BME280;4299;42.202;24.736;2023-02-04T08:53:50;99126.44;;;9.73;nan
8523;BME280;4299;42.202;24.736;2023-02-04T08:56:18;99123.09;;;9.86;nan
8523;BME280;4299;42.202;24.736;2023-02-04T08:58:44;99119.16;;;10.07;nan
8523;BME280;4299;42.202;24.736;2023-02-04T09:01:12;99120.88;;;10.08;nan
8523;BME280;4299;42.202;24.736;2023-02-04T09:03:38;99114.28;;;10.15;nan
8523;BME280;4299;42.202;24.736;2023-02-04T09:06:05;99114.50;;;10.26;nan
8523;BME280;4299;42.202;24.736;2023-02-04T09:08:31;99122.19;;;10.59;nan
8523;BME280;4299;42.202;24.736;2023-02-04T09:10:58;99113.50;;;10.98;nan
8523;BME280;4299;42.202;24.736;2023-02-04T09:13:26;99116.31;;;11.23;nan
8523;BME280;4299;42.202;24.736;2023-02-04T09:15:53;99118.38;;;11.18;nan
8523;BME280;4299;42.202;24.736;2023-02-04T09:18:19;99111.69;;;11.13;nan
8523;BME280;4299;42.202;24.736;2023-02-04T09:20:47;99100.97;;;11.14;nan
8523;BME280;4299;42.202;24.736;2023-02-04T09:23:14;99102.31;;;11.07;nan
8523;BME280;4299;42.202;24.736;2023-02-04T09:25:41;99091.56;;;10.82;nan
8523;BME280;4299;42.202;24.736;2023-02-04T09:28:08;99104.66;;;10.71;nan
8523;BME280;4299;42.202;24.736;2023-02-04T09:30:37;99088.63;;;10.86;nan
8523;BME280;4299;42.202;24.736;2023-02-04T09:33:03;99087.53;;;11.17;nan
8523;BME280;4299;42.202;24.736;2023-02-04T09:35:30;99093.50;;;11.33;nan
8523;BME280;4299;42.202;24.736;2023-02-04T09:37:56;99068.78;;;11.06;nan
8523;BME280;4299;42.202;24.736;2023-02-04T09:40:25;99086.94;;;10.85;nan
8523;BME280;4299;42.202;24.736;2023-02-04T09:42:53;99076.59;;;10.95;nan
8523;BME280;4299;42.202;24.736;2023-02-04T09:45:22;99071.63;;;11.03;nan
8523;BME280;4299;42.202;24.736;2023-02-04T09:47:52;99069.28;;;11.25;nan
8523;BME280;4299;42.202;24.736;2023-02-04T09:50:21;99064.88;;;11.39;nan
8523;BME280;4299;42.202;24.736;2023-02-04T09:52:50;99077.81;;;11.30;nan
8523;BME280;4299;42.202;24.736;2023-02-04T09:55:20;99058.34;;;11.17;nan
8523;BME280;4299;42.202;24.736;2023-02-04T09:57:47;99066.75;;;11.24;nan
8523;BME280;4299;42.202;24.736;2023-02-04T10:00:16;99034.53;;;11.43;nan
8523;BME280;4299;42.202;24.736;2023-02-04T10:02:43;99045.22;;;11.28;nan
8523;BME280;4299;42.202;24.736;2023-02-04T10:05:14;99057.88;;;11.38;nan
8523;BME280;4299;42.202;24.736;2023-02-04T10:07:41;99048.06;;;11.25;nan
8523;BME280;4299;42.202;24.736;2023-02-04T10:10:15;99035.66;;;10.99;nan
8523;BME280;4299;42.202;24.736;2023-02-04T10:12:43;99047.78;;;10.89;nan
8523;BME280;4299;42.202;24.736;2023-02-04T10:15:13;99041.50;;;11.04;nan
8523;BME280;4299;42.202;24.736;2023-02-04T10:17:40;99038.84;;;11.04;nan
8523;BME280;4299;42.202;24.736;2023-02-04T10:20:13;99060.41;;;10.85;nan
8523;BME280;4299;42.202;24.736;2023-02-04T10:22:40;99032.13;;;10.72;nan
8523;BME280;4299;42.202;24.736;2023-02-04T10:25:11;99042.91;;;10.69;nan
8523;BME280;4299;42.202;24.736;2023-02-04T10:27:47;99037.44;;;10.72;nan
8523;BME280;4299;42.202;24.736;2023-02-04T10:30:19;99026.84;;;10.72;nan
8523;BME280;4299;42.202;24.736;2023-02-04T10:32:46;99039.31;;;10.70;nan
8523;BME280;4299;42.202;24.736;2023-02-04T10:35:16;99028.78;;;10.82;nan
8523;BME280;4299;42.202;24.736;2023-02-04T10:37:43;99020.34;;;10.90;nan
8523;BME280;4299;42.202;24.736;2023-02-04T10:40:28;99029.41;;;11.00;nan
8523;BME280;4299;42.202;24.736;2023-02-04T10:42:55;99014.44;;;10.99;nan
8523;BME280;4299;42.202;24.736;2023-02-04T10:45:24;99028.13;;;11.32;nan
8523;BME280;4299;42.202;24.736;2023-02-04T10:47:51;99017.78;;;11.15;nan
8523;BME280;4299;42.202;24.736;2023-02-04T10:50:21;99022.19;;;11.02;nan
8523;BME280;4299;42.202;24.736;2023-02-04T10:52:53;99009.22;;;10.71;nan
8523;BME280;4299;42.202;24.736;2023-02-04T10:55:40;99016.06;;;10.46;nan
8523;BME280;4299;42.202;24.736;2023-02-04T10:58:08;99008.59;;;10.10;nan
8523;BME280;4299;42.202;24.736;2023-02-04T11:00:36;99001.31;;;10.00;nan
8523;BME280;4299;42.202;24.736;2023-02-04T11:03:06;98991.47;;;10.02;nan
8523;BME280;4299;42.202;24.736;2023-02-04T11:05:37;98991.09;;;9.94;nan
8523;BME280;4299;42.202;24.736;2023-02-04T11:08:18;98987.88;;;9.89;nan
8523;BME280;4299;42.202;24.736;2023-02-04T11:10:48;98983.13;;;9.80;nan
8523;BME280;4299;42.202;24.736;2023-02-04T11:13:22;98987.88;;;9.89;nan
8523;BME280;4299;42.202;24.736;2023-02-04T11:15:53;98970.69;;;9.82;nan
8523;BME280;4299;42.202;24.736;2023-02-04T11:18:28;98971.53;;;9.82;nan
8523;BME280;4299;42.202;24.736;2023-02-04T11:20:59;98979.56;;;9.81;nan
8523;BME280;4299;42.202;24.736;2023-02-04T11:23:32;98960.28;;;9.79;nan
8523;BME280;4299;42.202;24.736;2023-02-04T11:26:04;98970.59;;;9.83;nan
8523;BME280;4299;42.202;24.736;2023-02-04T11:31:27;98970.69;;;9.82;nan
8523;BME280;4299;42.202;24.736;2023-02-04T11:34:09;98960.00;;;9.83;nan
8523;BME280;4299;42.202;24.736;2023-02-04T11:36:55;98945.16;;;9.81;nan
8523;BME280;4299;42.202;24.736;2023-02-04T11:39:26;98945.06;;;9.82;nan
8523;BME280;4299;42.202;24.736;2023-02-04T11:41:54;98958.19;;;9.84;nan
8523;BME280;4299;42.202;24.736;2023-02-04T11:44:20;98941.94;;;9.90;nan
8523;BME280;4299;42.202;24.736;2023-02-04T11:46:50;98947.06;;;9.93;nan
8523;BME280;4299;42.202;24.736;2023-02-04T11:49:20;98942.50;;;9.81;nan
8523;BME280;4299;42.202;24.736;2023-02-04T11:51:49;98926.44;;;9.84;nan
8523;BME280;4299;42.202;24.736;2023-02-04T11:54:17;98943.44;;;9.94;nan
8523;BME280;4299;42.202;24.736;2023-02-04T11:56:45;98920.19;;;9.99;nan
8523;BME280;4299;42.202;24.736;2023-02-04T11:59:13;98929.25;;;9.95;nan
8523;BME280;4299;42.202;24.736;2023-02-04T12:01:42;98939.47;;;10.01;nan
8523;BME280;4299;42.202;24.736;2023-02-04T12:04:21;98917.16;;;10.19;nan
8523;BME280;4299;42.202;24.736;2023-02-04T12:06:58;98883.50;;;10.21;nan
8523;BME280;4299;42.202;24.736;2023-02-04T12:09:27;98931.72;;;10.12;nan
8523;BME280;4299;42.202;24.736;2023-02-04T12:11:56;98916.22;;;10.06;nan
8523;BME280;4299;42.202;24.736;2023-02-04T12:14:29;98921.50;;;10.06;nan
8523;BME280;4299;42.202;24.736;2023-02-04T12:16:56;98931.16;;;10.07;nan
8523;BME280;4299;42.202;24.736;2023-02-04T12:19:23;98918.28;;;10.01;nan
8523;BME280;4299;42.202;24.736;2023-02-04T12:21:50;98935.50;;;10.08;nan
8523;BME280;4299;42.202;24.736;2023-02-04T12:24:18;98932.09;;;10.06;nan
8523;BME280;4299;42.202;24.736;2023-02-04T12:26:45;98933.03;;;10.05;nan
8523;BME280;4299;42.202;24.736;2023-02-04T12:29:11;98931.53;;;10.15;nan
8523;BME280;4299;42.202;24.736;2023-02-04T12:31:38;98919.97;;;10.30;nan
8523;BME280;4299;42.202;24.736;2023-02-04T12:34:04;98934.88;;;10.45;nan
8523;BME280;4299;42.202;24.736;2023-02-04T12:36:31;98919.13;;;10.30;nan
8523;BME280;4299;42.202;24.736;2023-02-04T12:38:58;98895.41;;;10.28;nan
8523;BME280;4299;42.202;24.736;2023-02-04T12:41:26;98927.56;;;10.22;nan
8523;BME280;4299;42.202;24.736;2023-02-04T12:43:52;98919.97;;;10.30;nan
8523;BME280;4299;42.202;24.736;2023-02-04T12:46:20;98909.84;;;10.08;nan
8523;BME280;4299;42.202;24.736;2023-02-04T12:48:46;98936.25;;;9.96;nan
8523;BME280;4299;42.202;24.736;2023-02-04T12:51:13;98919.59;;;9.94;nan
8523;BME280;4299;42.202;24.736;2023-02-04T12:53:40;98916.41;;;9.89;nan
8523;BME280;4299;42.202;24.736;2023-02-04T12:56:06;98932.28;;;9.74;nan
8523;BME280;4299;42.202;24.736;2023-02-04T12:58:34;98932.66;;;9.68;nan
8523;BME280;4299;42.202;24.736;2023-02-04T13:01:01;98930.88;;;9.55;nan
8523;BME280;4299;42.202;24.736;2023-02-04T13:03:28;98921.69;;;9.46;nan
8523;BME280;4299;42.202;24.736;2023-02-04T13:05:54;98924.50;;;9.43;nan
8523;BME280;4299;42.202;24.736;2023-02-04T13:08:21;98925.28;;;9.45;nan
8523;BME280;4299;42.202;24.736;2023-02-04T13:10:48;98931.25;;;9.49;nan
8523;BME280;4299;42.202;24.736;2023-02-04T13:13:16;98935.69;;;9.48;nan
8523;BME280;4299;42.202;24.736;2023-02-04T13:15:45;98933.78;;;9.50;nan
8523;BME280;4299;42.202;24.736;2023-02-04T13:18:12;98937.75;;;9.43;nan
8523;BME280;4299;42.202;24.736;2023-02-04T13:20:38;98934.16;;;9.44;nan
8523;BME280;4299;42.202;24.736;2023-02-04T13:23:05;98934.06;;;9.46;nan
8523;BME280;4299;42.202;24.736;2023-02-04T13:25:32;98940.41;;;9.57;nan
8523;BME280;4299;42.202;24.736;2023-02-04T13:27:59;98939.38;;;9.60;nan
8523;BME280;4299;42.202;24.736;2023-02-04T13:30:25;98954.78;;;9.53;nan
8523;BME280;4299;42.202;24.736;2023-02-04T13:32:53;98953.91;;;9.53;nan
8523;BME280;4299;42.202;24.736;2023-02-04T13:35:20;98948.72;;;9.51;nan
8523;BME280;4299;42.202;24.736;2023-02-04T13:37:47;98965.28;;;9.55;nan
8523;BME280;4299;42.202;24.736;2023-02-04T13:40:13;98950.34;;;9.54;nan
8523;BME280;4299;42.202;24.736;2023-02-04T13:42:40;98958.19;;;9.55;nan
8523;BME280;4299;42.202;24.736;2023-02-04T13:45:08;98954.22;;;9.48;nan
8523;BME280;4299;42.202;24.736;2023-02-04T13:47:36;98975.09;;;9.53;nan